Time;durP1;ratioP1;P1;durP2;ratioP2;P2;SDS_P1;SDS_P2;PMS_P1;PMS_P2;Temp;Humidity;BMP_temperature;BMP_pressure;BME280_temperature;BME280_humidity;BME280_pressure;Samples;Min_cycle;Max_cycle;Signal;HPM_P1;HPM_P2
2022/11/14 00:02:03;;;;;;;0.40;0.40;;;;;;;;;;7389377;19;20121;-63
2022/11/14 00:04:28;;;;;;;0.20;0.20;;;;;;;;;;7384907;19;20212;-63
2022/11/14 00:06:53;;;;;;;0.20;0.20;;;;;;;;;;7387541;19;20117;-63
2022/11/14 00:09:19;;;;;;;2.63;1.13;;;;;;;;;;7379711;19;20172;-63
2022/11/14 00:11:44;;;;;;;0.20;0.20;;;;;;;;;;7385028;19;20166;-65
2022/11/14 00:14:10;;;;;;;0.20;0.20;;;;;;;;;;7389544;19;20121;-63
2022/11/14 00:16:35;;;;;;;0.30;0.30;;;;;;;;;;7382252;19;20120;-64
2022/11/14 00:19:01;;;;;;;0.20;0.20;;;;;;;;;;7385906;19;20201;-64
2022/11/14 00:21:26;;;;;;;0.30;0.30;;;;;;;;;;7382193;19;20156;-63
2022/11/14 00:23:51;;;;;;;0.20;0.20;;;;;;;;;;7388462;19;20121;-64
2022/11/14 00:26:17;;;;;;;0.20;0.20;;;;;;;;;;7388255;19;20116;-63
2022/11/14 00:28:42;;;;;;;0.30;0.30;;;;;;;;;;7388236;19;20496;-65
2022/11/14 00:31:08;;;;;;;0.20;0.20;;;;;;;;;;7388557;19;20618;-63
2022/11/14 00:33:34;;;;;;;0.20;0.20;;;;;;;;;;7387531;19;20212;-63
2022/11/14 00:35:59;;;;;;;0.20;0.20;;;;;;;;;;7385319;19;20627;-64
2022/11/14 00:38:24;;;;;;;0.20;0.20;;;;;;;;;;7386119;19;20171;-63
2022/11/14 00:40:50;;;;;;;0.20;0.20;;;;;;;;;;7389799;19;20204;-62
2022/11/14 00:43:15;;;;;;;0.30;0.30;;;;;;;;;;7388117;19;20129;-63
2022/11/14 00:45:45;;;;;;;0.20;0.20;;;;;;;;;;7390872;19;20129;-63
2022/11/14 00:48:11;;;;;;;0.30;0.30;;;;;;;;;;7381823;19;21340;-63
2022/11/14 00:50:36;;;;;;;0.20;0.20;;;;;;;;;;7379567;19;20208;-64
2022/11/14 12:52:39;;;;;;;0.23;0.23;;;;;;;;;;7386151;19;20196;-63
2022/11/14 12:55:22;;;;;;;0.30;0.30;;;;;;;;;;7389904;19;20188;-64
2022/11/14 12:58:22;;;;;;;0.30;0.30;;;;;;;;;;7389937;19;20484;-64
2022/11/14 13:00:47;;;;;;;0.20;0.20;;;;;;;;;;7378959;19;20156;-63
2022/11/14 13:03:50;;;;;;;0.40;0.40;;;;;;;;;;7385527;19;20148;-65
2022/11/14 13:06:32;;;;;;;0.30;0.30;;;;;;;;;;7391488;19;20120;-63
2022/11/14 13:09:31;;;;;;;0.50;0.50;;;;;;;;;;7388251;19;20503;-65
2022/11/14 13:21:47;;;;;;;0.93;0.93;;;;;;;;;;7388442;19;20515;-63
2022/11/14 13:24:15;;;;;;;0.30;0.30;;;;;;;;;;7387600;19;20618;-64
2022/11/14 13:26:45;;;;;;;0.20;0.20;;;;;;;;;;7391488;19;20158;-63
2022/11/14 13:29:38;;;;;;;0.30;0.30;;;;;;;;;;7389309;19;20613;-63
2022/11/14 13:32:09;;;;;;;0.30;0.30;;;;;;;;;;7379185;19;20650;-63
2022/11/14 13:34:53;;;;;;;0.20;0.20;;;;;;;;;;7379180;19;20157;-64
2022/11/14 13:37:28;;;;;;;0.30;0.30;;;;;;;;;;7375622;19;20125;-66
2022/11/14 13:40:22;;;;;;;0.30;0.30;;;;;;;;;;7363783;19;20152;-65
2022/11/14 13:42:54;;;;;;;0.30;0.30;;;;;;;;;;7367267;19;20148;-63
2022/11/14 13:45:41;;;;;;;0.20;0.20;;;;;;;;;;7392179;19;20188;-65
2022/11/14 13:48:22;;;;;;;0.30;0.30;;;;;;;;;;7384811;19;20139;-64
2022/11/14 13:50:50;;;;;;;0.30;0.30;;;;;;;;;;7381777;19;20125;-65
2022/11/14 13:53:22;;;;;;;0.30;0.30;;;;;;;;;;7391513;19;20613;-64
2022/11/14 13:56:01;;;;;;;0.30;0.30;;;;;;;;;;7389325;19;20129;-64
2022/11/14 13:58:51;;;;;;;0.28;0.28;;;;;;;;;;7396679;19;20174;-64
2022/11/14 14:01:28;;;;;;;0.30;0.30;;;;;;;;;;7394669;19;20121;-65
2022/11/14 14:04:33;;;;;;;0.30;0.30;;;;;;;;;;7396361;19;20116;-64
2022/11/14 14:07:06;;;;;;;0.20;0.20;;;;;;;;;;7396245;19;20116;-64
2022/11/14 14:09:38;;;;;;;0.40;0.40;;;;;;;;;;7388942;19;20153;-64
2022/11/14 14:12:53;;;;;;;0.30;0.30;;;;;;;;;;7391041;19;20144;-65
2022/11/14 14:15:25;;;;;;;0.20;0.20;;;;;;;;;;7391995;19;20581;-64
2022/11/14 14:18:12;;;;;;;0.65;0.65;;;;;;;;;;7393603;19;20133;-64
2022/11/14 14:20:46;;;;;;;0.20;0.20;;;;;;;;;;7395683;19;20602;-64
2022/11/14 14:23:26;;;;;;;0.20;0.20;;;;;;;;;;7394123;19;20112;-64
2022/11/14 14:26:19;;;;;;;0.30;0.30;;;;;;;;;;7391876;19;20124;-64
2022/11/14 14:29:17;;;;;;;0.30;0.30;;;;;;;;;;7386851;19;20886;-65
2022/11/14 14:31:42;;;;;;;0.35;0.35;;;;;;;;;;7393531;19;20587;-64
2022/11/14 14:34:27;;;;;;;0.30;0.30;;;;;;;;;;7392602;19;20291;-64
2022/11/14 14:36:54;;;;;;;0.30;0.30;;;;;;;;;;7390825;19;20588;-64
2022/11/14 14:39:24;;;;;;;0.30;0.30;;;;;;;;;;7383969;19;20162;-64
2022/11/14 14:41:51;;;;;;;0.30;0.30;;;;;;;;;;7379077;19;20533;-64
2022/11/14 14:44:26;;;;;;;0.30;0.30;;;;;;;;;;7382952;19;20136;-64
2022/11/14 14:46:51;;;;;;;0.63;0.63;;;;;;;;;;7384135;19;20390;-65
2022/11/14 14:49:30;;;;;;;0.20;0.20;;;;;;;;;;7388868;19;20363;-64
2022/11/14 14:51:55;;;;;;;0.30;0.30;;;;;;;;;;7390416;19;20121;-65
2022/11/14 14:54:27;;;;;;;0.55;0.55;;;;;;;;;;7392458;19;20117;-64
2022/11/14 14:56:55;;;;;;;0.30;0.30;;;;;;;;;;7372830;19;20125;-64
2022/11/14 14:59:24;;;;;;;0.30;0.30;;;;;;;;;;7369654;19;20156;-64
2022/11/14 15:01:49;;;;;;;0.30;0.30;;;;;;;;;;7378543;19;20586;-64
2022/11/14 15:04:16;;;;;;;0.55;0.55;;;;;;;;;;7360812;19;20217;-64
2022/11/14 15:06:44;;;;;;;0.20;0.20;;;;;;;;;;7380995;19;20137;-64
2022/11/14 15:09:21;;;;;;;0.30;0.30;;;;;;;;;;7388703;19;20149;-64
2022/11/14 15:11:52;;;;;;;0.40;0.40;;;;;;;;;;7389265;19;20125;-65
2022/11/14 15:14:22;;;;;;;0.50;0.50;;;;;;;;;;7389666;19;20137;-64
2022/11/14 15:16:49;;;;;;;0.30;0.30;;;;;;;;;;7386213;19;20125;-64
2022/11/14 15:19:17;;;;;;;0.30;0.30;;;;;;;;;;7389720;19;20845;-64
2022/11/14 15:21:43;;;;;;;0.20;0.20;;;;;;;;;;7383267;19;20125;-66
2022/11/14 15:24:13;;;;;;;0.20;0.20;;;;;;;;;;7387492;19;20135;-64
2022/11/14 15:26:38;;;;;;;0.30;0.30;;;;;;;;;;7388195;19;20129;-63
2022/11/14 15:29:18;;;;;;;0.30;0.30;;;;;;;;;;7381848;19;20156;-63
2022/11/14 15:31:51;;;;;;;0.20;0.20;;;;;;;;;;7389427;19;20149;-63
2022/11/14 15:34:22;;;;;;;0.30;0.30;;;;;;;;;;7388952;19;20137;-64
2022/11/14 15:37:09;;;;;;;0.30;0.30;;;;;;;;;;7391600;19;20128;-63
2022/11/14 15:39:35;;;;;;;0.30;0.30;;;;;;;;;;7389799;19;20156;-64
2022/11/14 15:42:26;;;;;;;0.30;0.30;;;;;;;;;;7388657;19;20133;-63
2022/11/14 15:44:51;;;;;;;0.20;0.20;;;;;;;;;;7389349;19;20136;-63
2022/11/14 15:47:35;;;;;;;0.20;0.20;;;;;;;;;;7390244;19;20144;-63
2022/11/14 15:50:22;;;;;;;0.30;0.30;;;;;;;;;;7387169;19;20149;-63
2022/11/14 15:52:50;;;;;;;0.20;0.20;;;;;;;;;;7385585;19;20143;-65
2022/11/14 15:55:17;;;;;;;0.20;0.20;;;;;;;;;;7386646;19;20121;-63
2022/11/14 15:57:43;;;;;;;0.20;0.20;;;;;;;;;;7386925;19;20140;-63
2022/11/14 16:00:12;;;;;;;0.30;0.30;;;;;;;;;;7376531;19;20195;-64
2022/11/14 16:03:02;;;;;;;0.20;0.20;;;;;;;;;;7374906;19;20140;-65
2022/11/14 16:05:28;;;;;;;0.30;0.30;;;;;;;;;;7385755;19;20157;-63
2022/11/14 16:07:54;;;;;;;0.20;0.20;;;;;;;;;;7379551;19;20599;-63
2022/11/14 16:10:27;;;;;;;0.30;0.30;;;;;;;;;;7382310;19;20156;-63
2022/11/14 16:12:53;;;;;;;0.20;0.20;;;;;;;;;;7388658;19;20146;-63
2022/11/14 16:15:19;;;;;;;0.20;0.20;;;;;;;;;;7385845;19;20587;-63
2022/11/14 16:17:47;;;;;;;0.30;0.30;;;;;;;;;;7389584;19;20144;-64
2022/11/14 16:20:20;;;;;;;0.20;0.20;;;;;;;;;;7382828;19;20145;-63
2022/11/14 16:22:47;;;;;;;0.20;0.20;;;;;;;;;;7385810;19;20145;-64
2022/11/14 16:25:17;;;;;;;0.30;0.30;;;;;;;;;;7381055;19;20125;-64
2022/11/14 16:27:43;;;;;;;0.30;0.30;;;;;;;;;;7387571;19;20125;-63
2022/11/14 16:30:11;;;;;;;0.20;0.20;;;;;;;;;;7382843;19;20621;-64
2022/11/14 16:32:36;;;;;;;0.20;0.20;;;;;;;;;;7372379;19;21235;-63
2022/11/14 16:35:01;;;;;;;0.20;0.20;;;;;;;;;;7352123;19;20133;-64
2022/11/14 16:37:27;;;;;;;0.30;0.30;;;;;;;;;;7375320;19;20668;-63
2022/11/14 16:39:52;;;;;;;0.30;0.30;;;;;;;;;;7383213;19;20594;-63
2022/11/14 16:42:17;;;;;;;0.20;0.20;;;;;;;;;;7379678;19;20160;-63
2022/11/14 16:44:43;;;;;;;0.20;0.20;;;;;;;;;;7372598;19;20139;-63
2022/11/14 16:47:12;;;;;;;0.20;0.20;;;;;;;;;;7388631;19;20117;-63
2022/11/14 16:49:37;;;;;;;0.30;0.30;;;;;;;;;;7386945;19;20149;-63
2022/11/14 16:52:07;;;;;;;0.30;0.30;;;;;;;;;;7387516;19;20118;-63
2022/11/14 16:54:32;;;;;;;0.30;0.30;;;;;;;;;;7354891;19;20637;-63
2022/11/14 16:56:57;;;;;;;0.20;0.20;;;;;;;;;;7363864;19;20132;-64
2022/11/14 16:59:23;;;;;;;0.30;0.30;;;;;;;;;;7376494;19;20153;-63
2022/11/14 17:01:48;;;;;;;0.30;0.30;;;;;;;;;;7381778;19;20117;-63
2022/11/14 17:04:13;;;;;;;0.30;0.30;;;;;;;;;;7378302;19;20185;-64
2022/11/14 17:06:39;;;;;;;0.20;0.20;;;;;;;;;;7361361;19;20510;-64
2022/11/14 17:09:04;;;;;;;0.20;0.20;;;;;;;;;;7373750;19;20755;-65
2022/11/14 17:11:29;;;;;;;0.40;0.40;;;;;;;;;;7381048;19;20138;-63
2022/11/14 17:13:55;;;;;;;0.30;0.30;;;;;;;;;;7364888;19;20144;-63
2022/11/14 17:16:20;;;;;;;0.30;0.30;;;;;;;;;;7354672;19;20117;-63
2022/11/14 17:18:53;;;;;;;0.30;0.30;;;;;;;;;;7374519;19;20160;-63
2022/11/14 17:21:19;;;;;;;0.20;0.20;;;;;;;;;;7375546;19;20136;-64
2022/11/14 17:23:44;;;;;;;0.30;0.30;;;;;;;;;;7366888;19;20117;-65
2022/11/14 17:26:11;;;;;;;0.30;0.30;;;;;;;;;;7370835;19;20121;-63
2022/11/14 17:28:37;;;;;;;1.40;1.03;;;;;;;;;;7371868;19;20144;-64
2022/11/14 17:31:07;;;;;;;0.30;0.30;;;;;;;;;;7372204;19;20132;-64
2022/11/14 17:33:32;;;;;;;0.20;0.20;;;;;;;;;;7379931;19;20196;-64
2022/11/14 17:36:02;;;;;;;0.20;0.20;;;;;;;;;;7363891;19;20651;-65
2022/11/14 17:38:30;;;;;;;0.50;0.50;;;;;;;;;;7373989;19;20641;-64
2022/11/14 17:40:57;;;;;;;0.20;0.20;;;;;;;;;;7353840;19;20121;-65
2022/11/14 17:43:22;;;;;;;0.20;0.20;;;;;;;;;;7346515;19;20124;-63
2022/11/14 17:45:56;;;;;;;0.30;0.30;;;;;;;;;;7353333;19;20138;-65
2022/11/14 17:48:22;;;;;;;0.20;0.20;;;;;;;;;;7365115;19;20148;-63
2022/11/14 17:50:47;;;;;;;0.30;0.30;;;;;;;;;;7373773;19;20148;-63
2022/11/14 17:53:13;;;;;;;0.20;0.20;;;;;;;;;;7361597;19;20142;-63
2022/11/14 17:55:38;;;;;;;0.30;0.30;;;;;;;;;;7368779;19;20469;-65
2022/11/14 17:58:04;;;;;;;0.20;0.20;;;;;;;;;;7362072;19;20606;-63
2022/11/14 18:00:29;;;;;;;0.30;0.30;;;;;;;;;;7357179;19;20132;-66
2022/11/14 18:02:54;;;;;;;0.20;0.20;;;;;;;;;;7333254;19;20474;-64
2022/11/14 18:05:20;;;;;;;0.20;0.20;;;;;;;;;;7350174;19;20804;-64
2022/11/14 18:07:46;;;;;;;0.20;0.20;;;;;;;;;;7363351;19;20151;-64
2022/11/14 18:10:11;;;;;;;0.30;0.30;;;;;;;;;;7355864;19;20476;-63
2022/11/14 18:12:36;;;;;;;0.30;0.30;;;;;;;;;;7363060;19;20174;-64
2022/11/14 18:15:02;;;;;;;0.20;0.20;;;;;;;;;;7375286;19;20209;-64
2022/11/14 18:17:27;;;;;;;0.20;0.20;;;;;;;;;;7376962;19;20463;-63
2022/11/14 18:19:55;;;;;;;0.20;0.20;;;;;;;;;;7353245;19;20153;-63
2022/11/14 18:22:20;;;;;;;0.20;0.20;;;;;;;;;;7393915;19;20169;-63
2022/11/14 18:24:46;;;;;;;0.20;0.20;;;;;;;;;;7390360;19;20121;-62
2022/11/14 18:27:12;;;;;;;0.23;0.23;;;;;;;;;;7386854;19;20601;-64
2022/11/14 18:29:38;;;;;;;0.20;0.20;;;;;;;;;;7378519;19;20590;-63
2022/11/14 18:32:03;;;;;;;0.30;0.30;;;;;;;;;;7356062;19;20240;-65
2022/11/14 18:34:28;;;;;;;0.20;0.20;;;;;;;;;;7381836;19;20147;-63
2022/11/14 18:36:54;;;;;;;0.20;0.20;;;;;;;;;;7378808;19;20140;-63
2022/11/14 18:39:19;;;;;;;0.20;0.20;;;;;;;;;;7382162;19;20619;-64
2022/11/14 18:41:44;;;;;;;0.20;0.20;;;;;;;;;;7380142;19;20138;-63
2022/11/14 18:44:10;;;;;;;0.20;0.20;;;;;;;;;;7385902;19;20172;-64
2022/11/14 18:46:35;;;;;;;0.20;0.20;;;;;;;;;;7390573;19;20152;-63
2022/11/14 18:49:00;;;;;;;0.20;0.20;;;;;;;;;;7388780;19;20152;-63
2022/11/14 18:51:28;;;;;;;2.23;1.70;;;;;;;;;;7367377;19;21160;-65
2022/11/14 18:53:56;;;;;;;0.20;0.20;;;;;;;;;;7364076;19;20117;-64
2022/11/14 18:56:23;;;;;;;0.30;0.30;;;;;;;;;;7372410;19;20613;-64
2022/11/14 18:58:52;;;;;;;0.30;0.30;;;;;;;;;;7365905;19;20552;-64
2022/11/14 19:01:22;;;;;;;0.20;0.20;;;;;;;;;;7380567;19;20125;-63
2022/11/14 19:03:48;;;;;;;0.30;0.30;;;;;;;;;;7382951;19;20129;-63
2022/11/14 19:06:14;;;;;;;0.20;0.20;;;;;;;;;;7386218;19;20128;-63
2022/11/14 19:08:39;;;;;;;0.20;0.20;;;;;;;;;;7387238;19;20618;-63
2022/11/14 19:11:07;;;;;;;0.30;0.30;;;;;;;;;;7393903;19;20133;-63
2022/11/14 19:13:33;;;;;;;0.30;0.30;;;;;;;;;;7378167;19;20121;-63
2022/11/14 19:16:03;;;;;;;0.20;0.20;;;;;;;;;;7385922;19;20144;-63
2022/11/14 19:18:30;;;;;;;0.20;0.20;;;;;;;;;;7378309;19;20484;-63
2022/11/14 19:20:57;;;;;;;0.30;0.30;;;;;;;;;;7367061;19;20587;-64
2022/11/14 19:23:22;;;;;;;0.20;0.20;;;;;;;;;;7367363;19;20152;-65
2022/11/14 19:25:48;;;;;;;0.20;0.20;;;;;;;;;;7378388;19;20193;-65
2022/11/14 19:28:13;;;;;;;0.90;0.90;;;;;;;;;;7376682;19;20117;-63
2022/11/14 19:30:38;;;;;;;0.20;0.20;;;;;;;;;;7381492;19;20769;-64
2022/11/14 19:33:04;;;;;;;0.20;0.20;;;;;;;;;;7381530;19;20143;-63
2022/11/14 19:35:29;;;;;;;1.13;1.13;;;;;;;;;;7367590;19;20121;-63
2022/11/14 19:37:54;;;;;;;0.20;0.20;;;;;;;;;;7384395;19;20143;-63
2022/11/14 19:40:20;;;;;;;0.20;0.20;;;;;;;;;;7375341;19;20145;-63
2022/11/14 19:42:45;;;;;;;0.20;0.20;;;;;;;;;;7379599;19;20131;-65
2022/11/14 19:45:10;;;;;;;0.20;0.20;;;;;;;;;;7374167;19;21165;-63
2022/11/14 19:47:36;;;;;;;0.20;0.20;;;;;;;;;;7387884;19;20132;-64
2022/11/14 19:50:01;;;;;;;0.30;0.30;;;;;;;;;;7376016;19;20152;-63
2022/11/14 19:52:26;;;;;;;0.30;0.30;;;;;;;;;;7381138;19;20132;-63
2022/11/14 19:54:51;;;;;;;0.20;0.20;;;;;;;;;;7383893;19;20121;-63
2022/11/14 19:57:17;;;;;;;0.20;0.20;;;;;;;;;;7384609;19;20488;-63
2022/11/14 19:59:42;;;;;;;0.30;0.30;;;;;;;;;;7373275;19;20152;-63
2022/11/14 20:02:12;;;;;;;0.20;0.20;;;;;;;;;;7384818;19;20484;-63
2022/11/14 20:04:37;;;;;;;0.20;0.20;;;;;;;;;;7385519;19;20125;-63
2022/11/14 20:07:02;;;;;;;0.30;0.30;;;;;;;;;;7379651;19;20136;-64
2022/11/14 20:09:28;;;;;;;0.40;0.40;;;;;;;;;;7351700;19;20781;-64
2022/11/14 20:11:53;;;;;;;0.20;0.20;;;;;;;;;;7376085;19;20634;-64
2022/11/14 20:14:18;;;;;;;0.30;0.30;;;;;;;;;;7372602;19;20496;-63
2022/11/14 20:16:44;;;;;;;0.30;0.30;;;;;;;;;;7389946;19;20144;-64
2022/11/14 20:19:10;;;;;;;0.43;0.43;;;;;;;;;;7384423;19;20153;-65
2022/11/14 20:21:36;;;;;;;0.30;0.30;;;;;;;;;;7375995;19;20543;-64
2022/11/14 20:24:02;;;;;;;0.20;0.20;;;;;;;;;;7381446;19;20189;-63
2022/11/14 20:26:27;;;;;;;0.73;0.63;;;;;;;;;;7383244;19;20180;-63
2022/11/14 20:28:53;;;;;;;0.30;0.30;;;;;;;;;;7386106;19;20145;-64
2022/11/14 20:31:21;;;;;;;0.30;0.30;;;;;;;;;;7381663;19;20144;-65
2022/11/14 20:33:47;;;;;;;0.30;0.30;;;;;;;;;;7378833;19;20218;-63
2022/11/14 20:36:15;;;;;;;0.30;0.30;;;;;;;;;;7386843;19;20132;-65
2022/11/14 20:38:41;;;;;;;0.20;0.20;;;;;;;;;;7383373;19;20920;-63
2022/11/14 20:41:08;;;;;;;0.20;0.20;;;;;;;;;;7376654;19;20120;-65
2022/11/14 20:43:33;;;;;;;0.30;0.30;;;;;;;;;;7371688;19;20129;-65
2022/11/14 20:46:00;;;;;;;0.20;0.20;;;;;;;;;;7356347;19;20109;-63
2022/11/14 20:48:26;;;;;;;0.30;0.30;;;;;;;;;;7360954;19;20167;-64
2022/11/14 20:50:52;;;;;;;0.27;0.27;;;;;;;;;;7379578;19;20129;-64
2022/11/14 20:53:18;;;;;;;0.30;0.30;;;;;;;;;;7376719;19;20129;-63
2022/11/14 20:55:44;;;;;;;0.30;0.30;;;;;;;;;;7370432;19;20146;-64
2022/11/14 20:58:09;;;;;;;0.30;0.30;;;;;;;;;;7354100;19;20132;-64
2022/11/14 21:00:34;;;;;;;0.20;0.20;;;;;;;;;;7374278;19;20129;-64
2022/11/14 21:03:00;;;;;;;0.20;0.20;;;;;;;;;;7359511;19;20128;-65
2022/11/14 21:05:25;;;;;;;0.20;0.20;;;;;;;;;;7355670;19;20109;-63
2022/11/14 21:07:50;;;;;;;0.30;0.30;;;;;;;;;;7356072;19;20356;-63
2022/11/14 21:15:43;;;;;;;0.20;0.20;;;;;;;;;;7354640;19;20597;-64
2022/11/14 21:18:08;;;;;;;0.20;0.20;;;;;;;;;;7346327;19;20152;-63
2022/11/14 21:20:34;;;;;;;0.30;0.30;;;;;;;;;;7344201;19;20117;-63
2022/11/14 21:22:59;;;;;;;0.30;0.30;;;;;;;;;;7362219;19;20790;-63
2022/11/14 21:25:24;;;;;;;0.30;0.30;;;;;;;;;;7372941;19;20532;-63
2022/11/14 21:27:50;;;;;;;0.67;0.40;;;;;;;;;;7363657;19;20118;-64
2022/11/14 21:30:15;;;;;;;0.20;0.20;;;;;;;;;;7373713;19;20216;-62
2022/11/14 21:32:40;;;;;;;0.30;0.30;;;;;;;;;;7371480;19;20132;-63
2022/11/14 21:35:06;;;;;;;0.20;0.20;;;;;;;;;;7377852;19;20140;-63
2022/11/14 21:37:31;;;;;;;0.30;0.30;;;;;;;;;;7380907;19;24174;-63
2022/11/14 21:39:56;;;;;;;0.60;0.60;;;;;;;;;;7385722;19;20286;-63
2022/11/14 21:42:22;;;;;;;0.20;0.20;;;;;;;;;;7369512;19;20143;-63
2022/11/14 21:44:47;;;;;;;0.97;0.97;;;;;;;;;;7374003;19;20125;-63
2022/11/14 21:47:12;;;;;;;0.30;0.30;;;;;;;;;;7371706;19;20125;-62
2022/11/14 21:49:38;;;;;;;0.30;0.30;;;;;;;;;;7384900;19;20149;-62
2022/11/14 21:52:03;;;;;;;0.20;0.20;;;;;;;;;;7386409;19;20124;-64
2022/11/14 21:54:28;;;;;;;0.67;0.67;;;;;;;;;;7384422;19;20625;-63
2022/11/14 21:56:54;;;;;;;0.30;0.30;;;;;;;;;;7360863;19;20126;-63
2022/11/14 21:59:24;;;;;;;0.50;0.50;;;;;;;;;;7375038;19;20583;-63
2022/11/14 22:04:34;;;;;;;0.20;0.20;;;;;;;;;;7370218;19;20622;-63
2022/11/14 22:07:02;;;;;;;0.30;0.30;;;;;;;;;;7379879;19;20128;-63
2022/11/14 22:09:27;;;;;;;0.20;0.20;;;;;;;;;;7379300;19;20165;-63
2022/11/14 22:11:53;;;;;;;0.30;0.30;;;;;;;;;;7378956;19;20500;-65
2022/11/14 22:14:18;;;;;;;0.30;0.30;;;;;;;;;;7384709;19;20140;-63
2022/11/14 22:16:43;;;;;;;0.20;0.20;;;;;;;;;;7373608;19;20147;-65
2022/11/14 22:19:09;;;;;;;0.20;0.20;;;;;;;;;;7377475;19;20239;-63
2022/11/14 22:21:34;;;;;;;0.30;0.30;;;;;;;;;;7387479;19;20156;-63
2022/11/14 22:23:59;;;;;;;0.30;0.30;;;;;;;;;;7392668;19;20171;-63
2022/11/14 22:26:24;;;;;;;0.33;0.33;;;;;;;;;;7396012;19;20456;-62
2022/11/14 22:28:50;;;;;;;0.30;0.30;;;;;;;;;;7378028;19;21825;-63
2022/11/14 22:31:20;;;;;;;0.63;0.63;;;;;;;;;;7372883;19;20127;-64
2022/11/14 22:33:49;;;;;;;0.20;0.20;;;;;;;;;;7380487;19;20125;-63
2022/11/14 22:36:19;;;;;;;0.30;0.30;;;;;;;;;;7376405;19;20163;-63
2022/11/14 22:38:46;;;;;;;0.53;0.40;;;;;;;;;;7387579;19;20543;-63
2022/11/14 22:41:13;;;;;;;0.47;0.37;;;;;;;;;;7391264;19;20133;-63
2022/11/14 22:43:39;;;;;;;0.30;0.30;;;;;;;;;;7384829;19;20130;-65
2022/11/14 22:46:04;;;;;;;0.20;0.20;;;;;;;;;;7384701;19;20648;-63
2022/11/14 22:48:31;;;;;;;0.70;0.60;;;;;;;;;;7364456;19;20140;-63
2022/11/14 22:51:00;;;;;;;0.20;0.20;;;;;;;;;;7382729;19;20152;-63
2022/11/14 22:53:30;;;;;;;0.20;0.20;;;;;;;;;;7387170;19;20579;-64
2022/11/14 22:55:56;;;;;;;0.27;0.27;;;;;;;;;;7383146;19;20176;-62
2022/11/14 22:58:21;;;;;;;0.30;0.30;;;;;;;;;;7391509;19;20185;-63
2022/11/14 23:00:47;;;;;;;0.30;0.30;;;;;;;;;;7386621;19;20590;-64
2022/11/14 23:03:18;;;;;;;1.00;0.50;;;;;;;;;;7390968;19;20125;-63
2022/11/14 23:05:43;;;;;;;0.20;0.20;;;;;;;;;;7384601;19;20131;-63
2022/11/14 23:08:08;;;;;;;0.30;0.30;;;;;;;;;;7391131;19;20133;-63
2022/11/14 23:10:34;;;;;;;0.30;0.30;;;;;;;;;;7392729;19;20516;-63
2022/11/14 23:12:59;;;;;;;0.23;0.23;;;;;;;;;;7374482;19;20117;-63
2022/11/14 23:15:25;;;;;;;0.43;0.43;;;;;;;;;;7383738;19;20124;-64
2022/11/14 23:17:51;;;;;;;0.20;0.20;;;;;;;;;;7388153;19;20880;-63
2022/11/14 23:20:16;;;;;;;0.20;0.20;;;;;;;;;;7376407;19;20161;-65
2022/11/14 23:22:41;;;;;;;0.20;0.20;;;;;;;;;;7373836;19;20124;-63
2022/11/14 23:25:07;;;;;;;0.30;0.30;;;;;;;;;;7385073;19;20145;-62
2022/11/14 23:27:32;;;;;;;0.20;0.20;;;;;;;;;;7384342;19;20161;-64
2022/11/14 23:29:58;;;;;;;0.30;0.30;;;;;;;;;;7355869;19;20176;-63
2022/11/14 23:32:25;;;;;;;0.30;0.30;;;;;;;;;;7377238;19;20125;-63
2022/11/14 23:34:51;;;;;;;0.20;0.20;;;;;;;;;;7382549;19;20121;-63
2022/11/14 23:37:16;;;;;;;0.20;0.20;;;;;;;;;;7393483;19;20139;-63
2022/11/14 23:39:41;;;;;;;0.30;0.30;;;;;;;;;;7390477;19;20599;-63
2022/11/14 23:42:07;;;;;;;0.30;0.30;;;;;;;;;;7384142;19;20132;-62
2022/11/14 23:44:32;;;;;;;0.30;0.30;;;;;;;;;;7383350;19;20236;-62
2022/11/14 23:46:57;;;;;;;0.33;0.33;;;;;;;;;;7385678;19;20144;-64
2022/11/14 23:49:22;;;;;;;0.33;0.33;;;;;;;;;;7379645;19;20149;-62
2022/11/14 23:51:48;;;;;;;0.20;0.20;;;;;;;;;;7392163;19;20144;-64
2022/11/14 23:54:13;;;;;;;0.30;0.30;;;;;;;;;;7385040;19;20136;-64
2022/11/14 23:56:38;;;;;;;0.30;0.30;;;;;;;;;;7392453;19;20128;-63
2022/11/14 23:59:04;;;;;;;0.20;0.20;;;;;;;;;;7386599;19;20141;-64
